Ubet, Wisconsin
Current Conditions -  °F | °C
As of 11:55 AM on Friday 19 Dec 2014 (Local Time) from KOEO Reporting Station
Overcast Overcast  
Wind Chill: 19°   Ceiling: 2400
Heat Index: 26°   Visibility: 10mi
Dew Point: 22°   Wind: 7mph
Humidity: 83%   Direction: 130°SE
Pressure: 30.26"   Gusts: NA
Location:  45.3599°N, 92.5447°W
Report Text: KOEO 191755Z AUTO 13006KT 10SM OVC024 M03/M06 A3026 RMK AO2 T10321057 11032 21053
Loading
Personal Weather Stations






























Interactive Weather Map New forecast layout! Learn more

10-Day Weather Forecast

Advertisements
Track Severe Weather on mobile